Time;durP1;ratioP1;P1;durP2;ratioP2;P2;SDS_P1;SDS_P2;PMS_P1;PMS_P2;Temp;Humidity;BMP_temperature;BMP_pressure;BME280_temperature;BME280_humidity;BME280_pressure;Samples;Min_cycle;Max_cycle;Signal;HPM_P1;HPM_P2
2021/12/17 00:00:43;;;;;;;41.20;20.45;;;12.30;99.90;;;12.56;83.33;103913.72;4994224;28;20047;-73
2021/12/17 00:03:19;;;;;;;38.67;18.33;;;12.30;99.90;;;12.24;83.37;103870.06;4994246;28;20039;-73
2021/12/17 00:08:36;;;;;;;32.67;16.90;;;12.30;99.90;;;12.68;83.23;103922.09;4987264;28;20134;-73
2021/12/17 00:11:07;;;;;;;33.20;17.15;;;12.40;99.90;;;12.69;83.04;103919.53;4976855;28;20129;-73
2021/12/17 00:13:37;;;;;;;31.77;17.08;;;12.40;99.90;;;12.56;82.95;103892.47;4994062;28;20046;-73
2021/12/17 00:16:15;;;;;;;26.63;16.15;;;12.40;99.90;;;12.54;82.69;103897.72;4994006;28;20050;-73
2021/12/17 00:18:59;;;;;;;35.08;18.88;;;12.40;99.90;;;12.44;82.46;103884.97;4992960;28;20057;-73
2021/12/17 00:48:23;;;;;;;36.42;17.35;;;11.10;99.90;;;11.22;88.89;103914.59;4976532;28;20496;-72
2021/12/17 00:49:29;;;;;;;37.28;17.45;;;11.00;99.90;;;11.03;89.98;103922.59;4978723;28;20074;-72
2021/12/17 00:52:00;;;;;;;37.50;18.30;;;10.70;99.90;;;11.25;90.43;103925.28;4980176;28;20097;-73
2021/12/17 00:54:37;;;;;;;42.60;19.83;;;10.80;99.90;;;11.41;89.65;103929.47;4996743;28;20061;-73
2021/12/17 00:57:11;;;;;;;38.35;18.10;;;11.10;99.90;;;10.61;89.14;103783.97;4997863;28;20049;-72
2021/12/17 00:59:42;;;;;;;39.40;18.00;;;11.10;99.90;;;10.89;90.33;103921.09;4997553;28;20048;-73
2021/12/17 01:02:16;;;;;;;41.75;18.13;;;10.80;99.90;;;10.97;91.02;103918.78;4997549;28;20104;-73
2021/12/17 01:04:51;;;;;;;36.67;18.98;;;10.70;99.90;;;11.23;91.01;103920.75;4997772;28;20050;-72
2021/12/17 01:07:25;;;;;;;35.38;18.15;;;10.80;99.90;;;11.27;90.52;103922.69;4996483;28;20059;-73
2021/12/17 01:09:57;;;;;;;40.03;19.15;;;10.90;99.90;;;10.99;90.69;103925.03;4980127;28;20069;-72
2021/12/17 01:12:26;;;;;;;36.58;17.77;;;10.80;99.90;;;10.78;91.94;103925.03;4980016;28;20412;-72
2021/12/17 01:15:12;;;;;;;45.65;20.52;;;10.50;99.90;;;10.97;92.46;103918.78;4980062;28;20042;-73
2021/12/17 01:18:09;;;;;;;50.35;22.33;;;10.60;99.90;;;11.15;91.94;103914.25;4987184;28;20050;-73
2021/12/17 01:21:21;;;;;;;47.80;21.25;;;10.80;99.90;;;11.21;91.15;103912.75;4997168;28;20113;-73
2021/12/17 01:36:21;;;;;;;44.05;21.20;;;10.90;99.90;;;11.36;90.67;103918.69;4955933;29;20055;-73
2021/12/17 01:42:02;;;;;;;51.33;20.83;;;11.10;99.90;;;11.41;89.82;103927.75;4968979;28;20047;-73
2021/12/17 01:44:30;;;;;;;47.17;20.35;;;11.10;99.90;;;11.37;89.65;103899.31;4996721;28;20095;-73
2021/12/17 01:46:59;;;;;;;49.28;22.55;;;11.20;99.90;;;11.55;89.41;103893.84;4979472;28;20050;-72
2021/12/17 02:00:49;;;;;;;46.58;21.92;;;10.80;99.90;;;11.19;89.81;103924.16;4979220;28;20064;-73
2021/12/17 02:03:18;;;;;;;44.00;21.83;;;10.80;99.90;;;11.42;89.73;103924.25;4995480;28;20046;-73
2021/12/17 02:05:47;;;;;;;44.72;21.83;;;11.00;99.90;;;11.33;89.34;103888.50;4995263;28;20057;-73
2021/12/17 02:08:18;;;;;;;45.33;22.27;;;11.10;99.90;;;11.43;89.13;103881.00;4979115;28;20046;-73
2021/12/17 02:22:38;;;;;;;45.65;22.25;;;11.60;99.90;;;11.91;86.90;103908.59;4978911;28;20133;-73
2021/12/17 02:33:21;;;;;;;46.50;21.88;;;11.70;99.90;;;11.92;85.84;103902.44;4971995;28;20060;-73
2021/12/17 02:35:50;;;;;;;47.72;22.45;;;11.60;99.90;;;11.80;85.86;103870.13;4996047;28;20149;-73
2021/12/17 02:38:21;;;;;;;51.08;22.08;;;11.70;99.90;;;12.03;85.82;103895.78;4996034;28;20392;-73
2021/12/17 02:47:17;;;;;;;46.60;21.20;;;11.70;99.90;;;11.95;85.21;103899.91;4994650;28;20054;-72
2021/12/17 02:49:49;;;;;;;50.38;23.15;;;11.60;99.90;;;11.87;85.25;103882.78;4978330;28;20420;-73
2021/12/17 02:52:18;;;;;;;45.03;22.17;;;11.60;99.90;;;11.74;85.09;103860.19;4994579;28;20506;-73
2021/12/17 02:54:49;;;;;;;47.92;21.55;;;11.60;99.90;;;11.64;85.14;103842.09;4994492;28;20045;-73
2021/12/17 02:57:18;;;;;;;45.47;22.23;;;11.60;99.90;;;12.02;85.27;103890.44;4995458;28;20097;-73
2021/12/17 02:59:46;;;;;;;44.63;22.42;;;11.60;99.90;;;11.94;85.23;103891.88;4995344;28;20041;-73
2021/12/17 03:02:15;;;;;;;44.17;22.25;;;11.60;99.90;;;11.98;85.18;103893.81;4995523;28;20077;-73
2021/12/17 03:04:43;;;;;;;40.40;21.50;;;11.70;99.90;;;12.07;85.21;103897.72;4995179;28;20129;-72
2021/12/17 03:07:14;;;;;;;46.83;22.48;;;11.70;99.90;;;12.10;85.04;103892.50;4995191;28;20578;-73
2021/12/17 03:10:01;;;;;;;44.45;22.85;;;11.80;99.90;;;12.00;85.00;103876.22;4995212;28;20054;-73
2021/12/17 03:12:39;;;;;;;51.58;24.25;;;11.80;99.90;;;12.08;84.81;103885.38;4977704;28;20055;-73
2021/12/17 03:15:17;;;;;;;41.83;22.30;;;11.80;99.90;;;12.12;84.86;103884.59;4977898;28;20112;-72
2021/12/17 03:18:19;;;;;;;47.40;23.20;;;11.70;99.90;;;12.14;84.75;103889.13;4995309;28;20101;-72
2021/12/17 03:23:39;;;;;;;54.17;25.65;;;11.80;99.90;;;12.24;84.56;103893.03;4995160;28;20414;-73
2021/12/17 03:26:13;;;;;;;46.65;24.92;;;11.80;99.90;;;12.15;84.66;103884.75;4977673;28;20145;-73
2021/12/17 03:28:47;;;;;;;48.30;27.83;;;11.90;99.90;;;12.29;84.55;103896.78;4977448;28;20066;-73
2021/12/17 03:31:17;;;;;;;52.63;27.70;;;11.90;99.90;;;12.35;84.42;103899.66;4993683;28;20144;-73
2021/12/17 03:33:49;;;;;;;44.55;29.77;;;12.00;99.90;;;11.46;84.43;103730.00;4995038;28;20050;-73
2021/12/17 03:36:21;;;;;;;48.10;32.25;;;12.00;99.90;;;12.39;84.54;103899.81;4977455;28;20104;-73
2021/12/17 03:38:51;;;;;;;47.70;31.85;;;12.00;99.90;;;12.42;84.18;103897.28;4994937;28;20070;-73
2021/12/17 03:41:24;;;;;;;48.58;32.70;;;12.10;99.90;;;12.48;84.22;103907.22;4977428;28;20054;-73
2021/12/17 03:44:02;;;;;;;45.00;32.05;;;12.10;99.90;;;12.46;84.25;103903.59;4977360;28;20507;-73
2021/12/17 03:46:51;;;;;;;45.38;32.83;;;12.10;99.90;;;12.44;84.20;103900.00;4994504;28;20528;-73
2021/12/17 03:49:23;;;;;;;41.70;30.90;;;12.10;99.90;;;12.41;84.04;103898.13;4993454;28;20054;-73
2021/12/17 03:52:04;;;;;;;37.88;30.67;;;12.10;99.90;;;12.17;83.80;103844.16;4977195;28;20112;-73
2021/12/17 03:54:37;;;;;;;32.75;27.65;;;12.20;99.90;;;11.85;83.79;103815.50;4993390;28;20504;-73
2021/12/17 03:57:10;;;;;;;32.22;26.10;;;12.20;99.90;;;12.17;84.05;103901.63;4977138;28;20519;-73
2021/12/17 03:59:45;;;;;;;34.40;29.05;;;12.00;99.90;;;12.26;84.39;103909.91;4977109;28;20050;-73
2021/12/17 04:02:17;;;;;;;38.97;31.08;;;12.00;99.90;;;12.22;84.48;103890.31;4977125;28;20046;-72
2021/12/17 04:04:46;;;;;;;40.58;31.20;;;12.00;99.90;;;12.28;84.54;103894.97;4994142;28;20053;-73
2021/12/17 04:07:33;;;;;;;33.00;27.95;;;12.00;99.90;;;12.21;84.50;103898.25;4994175;28;20057;-73
2021/12/17 04:10:22;;;;;;;33.45;27.02;;;12.00;99.90;;;12.25;84.63;103908.13;4994347;28;20061;-73
2021/12/17 04:12:58;;;;;;;38.05;29.88;;;12.00;99.90;;;12.31;84.54;103905.72;4976904;28;20522;-73
2021/12/17 04:15:35;;;;;;;37.22;28.92;;;12.00;99.90;;;12.27;84.39;103911.75;4976896;28;20054;-73
2021/12/17 04:18:07;;;;;;;38.78;30.00;;;12.00;99.90;;;12.28;84.41;103919.75;4976824;28;20046;-73
2021/12/17 04:20:36;;;;;;;41.60;30.55;;;12.00;99.90;;;12.29;84.56;103918.03;4976768;28;20064;-73
2021/12/17 04:23:05;;;;;;;42.15;32.97;;;12.00;99.90;;;12.32;84.71;103923.44;4992077;28;20452;-73
2021/12/17 04:25:33;;;;;;;38.97;30.25;;;12.00;99.90;;;12.34;84.52;103919.06;4994006;28;20042;-73
2021/12/17 04:28:05;;;;;;;39.53;30.00;;;12.10;99.90;;;12.33;84.58;103917.28;4976396;28;20057;-72
2021/12/17 04:30:37;;;;;;;33.10;26.75;;;12.00;99.90;;;12.32;84.51;103916.38;4992744;28;20062;-73
2021/12/17 04:33:07;;;;;;;29.35;23.02;;;12.00;99.90;;;12.25;84.47;103913.44;4976660;28;20416;-73
2021/12/17 04:35:36;;;;;;;24.30;21.67;;;12.00;99.90;;;12.25;84.40;103922.28;4976519;28;20050;-73
2021/12/17 04:38:07;;;;;;;25.85;20.55;;;12.00;99.90;;;11.93;84.27;103876.78;4992748;28;20548;-73
2021/12/17 04:40:38;;;;;;;;;;;12.00;99.90;;;11.98;84.40;103875.25;4976698;28;20073;-73
2021/12/17 04:43:16;;;;;;;19.90;17.17;;;12.00;99.90;;;12.17;84.32;103922.84;4992724;28;19921;-73
2021/12/17 04:45:57;;;;;;;19.70;17.00;;;12.00;99.90;;;12.20;84.28;103928.25;4976612;28;20050;-73
2021/12/17 04:59:41;;;;;;;22.27;18.27;;;11.80;99.90;;;12.04;84.64;103910.84;4976452;28;20050;-73
2021/12/17 05:02:11;;;;;;;23.02;17.98;;;11.80;99.90;;;12.04;84.51;103912.63;4993779;28;20043;-73
2021/12/17 05:04:50;;;;;;;23.25;19.13;;;11.80;99.90;;;12.02;84.49;103909.00;4976133;28;20049;-73
2021/12/17 05:07:21;;;;;;;24.98;19.60;;;11.80;99.90;;;11.89;84.73;103897.00;4976343;28;20105;-73
2021/12/17 05:09:59;;;;;;;26.83;21.10;;;11.80;99.90;;;12.05;84.58;103906.47;4976256;28;20054;-73
2021/12/17 05:18:22;;;;;;;32.42;22.10;;;11.70;99.90;;;11.95;85.05;103907.84;4976215;28;20042;-73
2021/12/17 05:21:09;;;;;;;28.00;22.05;;;11.70;99.90;;;11.84;85.13;103914.50;4976158;28;20054;-73
2021/12/17 05:23:44;;;;;;;28.40;20.77;;;11.70;99.90;;;11.53;85.28;103867.28;4975890;28;20500;-73
2021/12/17 05:26:16;;;;;;;29.97;22.83;;;11.60;99.90;;;11.60;85.19;103869.31;4993590;28;20104;-73
2021/12/17 05:28:55;;;;;;;28.97;22.20;;;11.60;99.90;;;11.87;84.98;103913.69;4975969;28;20752;-73
2021/12/17 05:31:29;;;;;;;28.42;21.38;;;11.70;99.90;;;11.87;84.93;103913.69;4976042;28;20053;-73
2021/12/17 05:33:59;;;;;;;32.88;23.95;;;11.60;99.90;;;11.80;85.19;103901.97;4975991;28;20109;-73
2021/12/17 05:36:40;;;;;;;32.88;23.27;;;11.60;99.90;;;11.78;85.03;103899.25;4979668;28;20068;-73
2021/12/17 05:39:18;;;;;;;37.20;24.85;;;11.60;99.90;;;11.78;85.15;103901.91;4995915;28;20404;-73
2021/12/17 05:41:47;;;;;;;30.08;22.13;;;11.60;99.90;;;11.58;85.12;103863.03;4979582;28;20077;-73
2021/12/17 05:44:58;;;;;;;29.35;21.77;;;11.60;99.90;;;11.72;84.67;103872.50;5001713;28;20507;-73
2021/12/17 05:47:27;;;;;;;29.05;21.90;;;11.70;99.90;;;11.88;84.69;103904.91;4979493;28;20057;-73
2021/12/17 05:49:57;;;;;;;31.40;22.73;;;11.70;99.90;;;11.91;84.78;103905.00;4996863;28;20109;-73
2021/12/17 05:52:25;;;;;;;32.23;22.50;;;11.70;99.90;;;11.91;84.98;103913.88;4979074;28;20050;-73
2021/12/17 05:54:54;;;;;;;30.02;22.15;;;11.70;99.90;;;11.99;84.72;103908.88;4979416;28;20428;-73
2021/12/17 05:57:22;;;;;;;31.17;22.08;;;11.70;99.90;;;12.00;84.48;103916.00;4979114;28;20073;-73
2021/12/17 05:59:51;;;;;;;31.40;23.05;;;11.80;99.90;;;11.94;84.56;103914.03;4978753;28;20057;-73
2021/12/17 06:02:20;;;;;;;32.30;22.85;;;11.70;99.90;;;11.83;84.64;103923.28;4996538;28;20054;-73
2021/12/17 06:04:52;;;;;;;36.00;25.10;;;11.70;99.90;;;11.91;84.42;103923.59;4978818;28;20038;-73
2021/12/17 06:07:27;;;;;;;31.58;22.52;;;11.70;99.90;;;11.88;84.39;103926.13;4979143;28;20054;-73
2021/12/17 06:10:02;;;;;;;34.13;22.27;;;11.60;99.90;;;11.86;84.68;103925.16;4995219;28;20050;-72
2021/12/17 06:12:35;;;;;;;27.88;21.00;;;11.60;99.90;;;11.91;84.57;103923.59;4978938;28;20096;-72
2021/12/17 06:15:06;;;;;;;28.60;20.77;;;11.60;99.90;;;11.91;84.56;103931.53;4996176;28;20112;-72
2021/12/17 06:17:34;;;;;;;27.35;19.10;;;11.70;99.90;;;11.93;84.25;103930.78;4996494;28;20058;-73
2021/12/17 06:20:05;;;;;;;24.48;18.40;;;11.70;99.90;;;11.90;84.56;103935.97;4978855;28;20042;-73
2021/12/17 06:22:37;;;;;;;21.48;15.27;;;11.70;99.90;;;11.86;84.16;103941.09;4978807;28;20141;-73
2021/12/17 06:25:11;;;;;;;17.92;13.63;;;11.70;99.90;;;11.79;84.12;103942.56;4994782;28;20409;-73
2021/12/17 06:27:40;;;;;;;20.00;14.55;;;11.60;99.90;;;11.77;84.24;103946.91;4978312;28;20057;-72
2021/12/17 06:30:13;;;;;;;18.90;13.65;;;11.60;99.90;;;11.60;84.48;103914.41;4978461;28;20085;-72
2021/12/17 06:32:43;;;;;;;21.40;15.13;;;11.60;99.90;;;11.75;84.67;103946.84;4978659;28;20520;-72
2021/12/17 06:35:15;;;;;;;18.45;13.55;;;11.60;99.90;;;11.71;84.55;103950.22;4978613;28;20141;-73
2021/12/17 06:37:45;;;;;;;;;;;11.50;99.90;;;11.58;84.58;103933.72;4978948;28;20058;-72
2021/12/17 06:40:22;;;;;;;18.13;13.68;;;11.60;99.90;;;11.77;84.61;103957.53;4994700;28;19921;-72
2021/12/17 06:42:51;;;;;;;17.92;13.73;;;11.60;99.90;;;11.65;84.46;103935.81;4978415;28;20062;-72
2021/12/17 06:45:36;;;;;;;18.75;13.10;;;11.60;99.90;;;11.58;84.51;103958.50;4994558;28;20097;-73
2021/12/17 06:48:06;;;;;;;18.70;14.15;;;11.40;99.90;;;11.63;84.84;103962.22;4977983;28;20049;-72
2021/12/17 06:57:48;;;;;;;18.55;13.52;;;11.40;99.90;;;11.67;84.93;103958.91;4995718;28;20061;-73
2021/12/17 07:00:49;;;;;;;18.55;13.23;;;11.40;99.90;;;11.68;85.23;103952.78;4995174;28;20400;-73
2021/12/17 07:07:39;;;;;;;16.85;12.80;;;11.50;99.90;;;11.71;85.18;103979.41;4978449;28;20129;-73
2021/12/17 07:10:15;;;;;;;19.70;13.02;;;11.50;99.90;;;11.60;85.27;103934.69;4977824;28;20070;-73
2021/12/17 07:21:26;;;;;;;25.05;15.13;;;11.20;99.90;;;11.08;86.87;103958.13;4995221;28;20392;-71
2021/12/17 07:32:43;;;;;;;27.73;16.13;;;10.70;99.90;;;11.16;88.78;103975.25;4979822;28;20073;-74
2021/12/17 07:35:38;;;;;;;28.20;16.63;;;10.90;99.90;;;11.17;88.69;103971.75;4977610;28;20052;-74
2021/12/17 07:40:57;;;;;;;26.38;17.00;;;11.00;99.90;;;11.33;88.54;103971.56;4974105;28;20392;-75
2021/12/17 07:43:29;;;;;;;31.98;18.90;;;11.10;99.90;;;11.21;88.02;103941.91;4977408;28;20073;-78
2021/12/17 07:45:58;;;;;;;27.88;17.45;;;11.20;99.90;;;11.44;87.78;103974.69;4994854;28;20407;-70
2021/12/17 07:48:28;;;;;;;28.08;17.35;;;11.20;99.90;;;11.27;87.61;103958.06;4977544;28;20058;-72
2021/12/17 07:50:58;;;;;;;;;;;11.20;99.90;;;11.33;87.81;103984.81;4977562;28;20050;-74
2021/12/17 07:53:48;;;;;;;34.80;18.60;;;11.20;99.90;;;11.49;87.65;103984.66;4994009;28;19922;-77
2021/12/17 07:56:25;;;;;;;29.40;16.85;;;11.30;99.90;;;11.17;87.65;103994.72;4977508;28;20061;-77
2021/12/17 07:59:02;;;;;;;31.23;18.45;;;11.10;99.90;;;11.14;87.89;103962.78;4976680;28;20052;-82
2021/12/17 08:01:31;;;;;;;;;;;11.10;99.90;;;11.34;87.92;103991.03;4977268;28;20042;-73
2021/12/17 08:04:00;;;;;;;29.88;17.92;;;11.20;99.90;;;11.46;88.05;103987.16;4993099;28;20358;-69
2021/12/17 08:06:49;;;;;;;28.70;16.55;;;11.20;99.90;;;11.50;87.63;103994.38;4976717;28;20058;-69
2021/12/17 08:09:24;;;;;;;29.70;18.10;;;11.30;99.90;;;11.50;87.47;104012.03;4976325;28;20050;-72
2021/12/17 08:11:56;;;;;;;26.80;17.60;;;11.30;99.90;;;11.58;87.60;103994.72;4976673;28;20096;-70
2021/12/17 08:14:33;;;;;;;32.00;18.10;;;11.30;99.90;;;11.40;87.50;103988.66;4976863;28;20051;-74
2021/12/17 08:17:17;;;;;;;29.17;16.40;;;11.40;99.90;;;11.38;87.33;103998.28;4976717;28;20050;-71
2021/12/17 08:25:28;;;;;;;30.00;17.77;;;11.40;99.90;;;11.70;87.23;104000.56;4976657;28;20404;-72
2021/12/17 08:28:06;;;;;;;27.65;16.20;;;11.40;99.90;;;11.48;87.20;103958.03;4976301;28;20051;-74
2021/12/17 08:30:41;;;;;;;27.25;15.75;;;11.50;99.90;;;11.28;86.89;103912.19;4976719;28;20077;-76
2021/12/17 08:33:22;;;;;;;23.65;14.80;;;11.50;99.90;;;11.76;86.88;103995.50;4976410;28;20047;-76
2021/12/17 08:35:57;;;;;;;24.33;15.63;;;11.60;99.90;;;11.78;86.84;104005.34;4976644;28;20069;-74
2021/12/17 08:38:32;;;;;;;22.15;14.45;;;11.60;99.90;;;11.75;86.88;103980.41;4976458;28;20492;-77
2021/12/17 08:41:06;;;;;;;21.52;13.25;;;11.60;99.90;;;11.91;86.78;104001.44;4976424;28;20385;-80
2021/12/17 08:43:35;;;;;;;20.38;12.50;;;11.60;99.90;;;11.89;86.63;103992.50;4975948;28;20058;-79
2021/12/17 08:46:11;;;;;;;17.05;11.82;;;11.70;99.90;;;11.87;86.61;103994.19;4976364;28;20059;-79
2021/12/17 08:49:02;;;;;;;17.17;10.80;;;11.60;99.90;;;11.93;86.57;103990.88;4976465;28;20046;-79
2021/12/17 08:52:06;;;;;;;19.02;12.75;;;11.60;99.90;;;11.97;86.17;103979.53;4976663;28;20078;-79
2021/12/17 08:54:35;;;;;;;18.95;11.73;;;11.70;99.90;;;11.84;86.40;103964.91;4976224;28;20141;-79
2021/12/17 08:57:05;;;;;;;18.77;11.25;;;11.70;99.90;;;12.02;86.33;103989.50;4976100;28;20039;-79
2021/12/17 08:59:39;;;;;;;17.75;11.60;;;11.80;99.90;;;11.83;85.93;103944.50;4976450;28;20050;-79
2021/12/17 09:02:14;;;;;;;17.55;11.15;;;11.80;99.90;;;12.08;85.93;103978.25;4993767;28;20560;-78
2021/12/17 09:04:55;;;;;;;16.23;11.18;;;11.90;99.90;;;12.09;85.64;103983.59;4976544;28;20062;-78
2021/12/17 09:07:23;;;;;;;15.25;10.38;;;11.80;99.90;;;12.04;85.65;103976.31;4976225;28;20137;-79
2021/12/17 09:10:06;;;;;;;16.75;10.40;;;11.90;99.90;;;12.16;85.46;103995.34;4977998;28;20401;-78
2021/12/17 09:12:36;;;;;;;15.50;10.55;;;11.90;99.90;;;12.20;85.55;103992.88;4980166;28;20043;-78
2021/12/17 09:15:06;;;;;;;15.23;9.98;;;12.00;99.90;;;12.25;85.35;103998.38;4996220;28;20050;-78
2021/12/17 09:17:55;;;;;;;15.88;10.50;;;12.00;99.90;;;12.27;85.18;103999.34;4997564;28;20105;-78
2021/12/17 09:20:26;;;;;;;15.85;9.85;;;12.00;99.90;;;12.24;84.87;103983.28;4979988;28;20051;-78
2021/12/17 09:22:55;;;;;;;15.23;9.65;;;12.10;99.90;;;12.20;84.40;103995.53;4979788;28;20042;-79
2021/12/17 09:25:29;;;;;;;14.48;9.65;;;12.00;99.90;;;12.21;84.45;104009.72;4996025;28;20050;-78
2021/12/17 09:28:08;;;;;;;15.27;9.73;;;12.00;99.90;;;11.95;84.30;103958.25;4979326;28;20054;-78
2021/12/17 09:30:49;;;;;;;12.80;9.15;;;12.00;99.90;;;11.56;84.35;103880.66;4997361;28;20274;-78
2021/12/17 09:33:19;;;;;;;12.73;9.02;;;12.00;99.90;;;12.20;84.40;103998.19;4996644;28;20043;-78
2021/12/17 09:35:48;;;;;;;14.53;9.13;;;12.00;99.90;;;11.74;85.29;103991.91;4995878;28;20419;-78
2021/12/17 09:38:16;;;;;;;15.57;10.65;;;11.70;99.90;;;11.77;86.36;104011.47;4996906;28;20293;-78
2021/12/17 09:40:45;;;;;;;16.65;9.85;;;11.60;99.90;;;11.81;85.94;104008.97;4997148;28;20038;-78
2021/12/17 09:43:16;;;;;;;16.02;10.00;;;11.60;99.90;;;11.64;86.92;104009.13;4997026;28;20121;-78
2021/12/17 09:45:45;;;;;;;14.73;9.82;;;11.50;99.90;;;11.89;86.62;104010.16;4996805;28;20050;-78
2021/12/17 09:48:15;;;;;;;13.77;9.82;;;11.60;99.90;;;12.00;86.39;104019.47;4996790;28;20042;-78
2021/12/17 09:50:45;;;;;;;16.50;10.52;;;11.70;99.90;;;11.20;87.60;103994.84;4996862;28;20047;-78
2021/12/17 09:53:13;;;;;;;19.87;11.40;;;11.30;99.90;;;10.65;90.11;104029.47;4996789;28;20378;-78
2021/12/17 09:55:42;;;;;;;16.42;10.73;;;10.70;99.90;;;10.96;91.62;104021.16;4996522;28;20126;-77
2021/12/17 09:58:10;;;;;;;18.30;12.30;;;10.70;99.90;;;11.30;90.61;104018.25;4979205;28;20046;-78
2021/12/17 10:00:39;;;;;;;16.42;11.43;;;11.00;99.90;;;11.49;89.68;104027.06;4996442;28;20069;-79
2021/12/17 10:03:09;;;;;;;18.83;11.68;;;11.20;99.90;;;11.00;90.02;103991.31;4979268;28;20492;-78
2021/12/17 10:05:39;;;;;;;17.83;11.18;;;11.00;99.90;;;11.39;89.92;104024.84;4996871;28;20547;-78
2021/12/17 10:08:12;;;;;;;;;;;11.10;99.90;;;11.28;89.95;103989.03;4996755;28;20052;-78
2021/12/17 10:10:44;;;;;;;19.30;11.98;;;11.20;99.90;;;11.47;89.10;104030.47;4996580;28;19922;-77
2021/12/17 10:13:14;;;;;;;19.02;12.40;;;11.30;99.90;;;11.37;88.75;104000.03;4996280;28;20400;-78
2021/12/17 10:15:46;;;;;;;19.75;11.23;;;11.40;99.90;;;11.44;88.61;104018.00;4996213;28;20057;-78
2021/12/17 10:18:17;;;;;;;15.55;11.55;;;11.40;99.90;;;11.63;88.39;104033.81;4996404;28;20105;-78
2021/12/17 10:20:57;;;;;;;18.13;11.55;;;11.50;99.90;;;11.76;88.32;104049.47;4994267;28;20100;-78
2021/12/17 10:23:30;;;;;;;12.55;9.70;;;11.50;99.90;;;11.88;87.85;104042.84;4996185;28;20058;-78
2021/12/17 10:25:59;;;;;;;13.68;8.98;;;11.60;99.90;;;11.91;87.37;104035.00;4996079;28;20097;-78
2021/12/17 10:28:30;;;;;;;10.88;8.45;;;11.70;99.90;;;11.91;86.82;104040.31;4995844;28;20528;-78
2021/12/17 10:30:59;;;;;;;;;;;11.70;99.90;;;11.94;86.24;104036.06;4996360;28;20038;-78
2021/12/17 10:33:29;;;;;;;12.23;7.82;;;11.70;99.90;;;11.98;85.85;104039.75;4996016;28;20004;-78
2021/12/17 10:36:03;;;;;;;8.55;6.45;;;11.80;99.90;;;11.93;85.70;104028.94;4995867;28;20507;-79
2021/12/17 10:38:36;;;;;;;9.32;6.70;;;11.80;99.90;;;11.75;85.39;104021.13;4995732;28;20046;-78
2021/12/17 10:41:08;;;;;;;8.98;7.07;;;11.70;99.90;;;11.83;85.34;104044.44;4995637;28;20485;-78
2021/12/17 10:43:40;;;;;;;8.05;6.20;;;11.70;99.90;;;11.81;85.24;104044.34;4995863;28;20050;-78
2021/12/17 10:46:21;;;;;;;7.32;6.63;;;11.60;99.90;;;11.83;85.40;104041.78;4995554;28;20112;-78
2021/12/17 10:48:55;;;;;;;6.75;5.80;;;11.60;99.90;;;11.57;85.90;104046.84;4995774;28;20057;-77
2021/12/17 10:51:34;;;;;;;7.95;5.93;;;11.40;99.90;;;11.46;85.27;104048.13;4995565;28;20043;-77
2021/12/17 10:54:08;;;;;;;8.38;6.43;;;11.40;99.90;;;11.35;86.27;104045.84;4995349;28;20400;-77
2021/12/17 10:56:39;;;;;;;7.65;6.40;;;11.30;99.90;;;11.25;86.23;104043.63;4995510;28;20050;-78
2021/12/17 10:59:11;;;;;;;6.43;5.60;;;11.20;99.90;;;11.34;86.70;104041.41;4995378;28;20480;-78
2021/12/17 11:01:44;;;;;;;7.85;6.60;;;11.20;99.90;;;11.24;87.21;104041.84;4994313;28;20042;-78
2021/12/17 11:04:17;;;;;;;7.95;7.03;;;11.10;99.90;;;11.02;87.20;104026.72;4995410;28;20054;-77
2021/12/17 11:06:53;;;;;;;9.27;6.95;;;11.00;99.90;;;10.89;87.23;103997.91;4995242;28;20046;-78
2021/12/17 11:09:46;;;;;;;7.55;6.50;;;11.00;99.90;;;11.23;87.20;104043.56;4995259;28;20149;-77
2021/12/17 11:12:35;;;;;;;11.05;6.95;;;11.10;99.90;;;11.04;88.08;104050.63;4995468;28;20045;-77
2021/12/17 11:15:18;;;;;;;9.48;7.00;;;10.90;99.90;;;11.29;87.61;104042.94;4995080;28;20101;-77
2021/12/17 11:17:49;;;;;;;9.50;7.10;;;11.10;99.90;;;11.34;87.24;104038.75;4995393;28;20061;-77
2021/12/17 11:20:21;;;;;;;9.15;6.82;;;11.20;99.90;;;10.92;88.27;104031.56;4994958;28;20169;-75
2021/12/17 11:22:51;;;;;;;7.40;6.20;;;10.90;99.90;;;11.16;88.07;104037.94;4994895;28;20069;-76
2021/12/17 11:25:24;;;;;;;6.45;5.68;;;11.00;99.90;;;10.75;88.35;104036.09;4994892;28;20050;-77
2021/12/17 11:27:54;;;;;;;6.45;4.95;;;10.70;99.90;;;10.94;88.57;104020.19;4994814;28;20046;-77
2021/12/17 11:30:26;;;;;;;7.50;5.28;;;10.70;99.90;;;10.81;88.23;104025.78;4993742;28;20050;-76
2021/12/17 11:32:56;;;;;;;6.32;5.10;;;10.70;99.90;;;10.91;88.66;103990.94;4994646;28;20093;-76
2021/12/17 11:35:27;;;;;;;6.53;5.60;;;10.80;99.90;;;10.43;89.59;104018.72;4994775;28;20039;-76
2021/12/17 11:37:58;;;;;;;;;;;10.50;99.90;;;10.47;90.83;104019.78;4995178;28;20069;-76
2021/12/17 11:40:33;;;;;;;7.50;5.60;;;10.30;99.90;;;10.24;91.70;104015.16;4994926;28;19929;-76
2021/12/17 11:43:52;;;;;;;7.22;6.40;;;10.20;99.90;;;10.30;92.08;104013.69;4994429;28;20077;-77
2021/12/17 11:46:26;;;;;;;6.57;5.35;;;10.20;99.90;;;10.84;91.59;104013.56;4993470;28;20081;-76
2021/12/17 11:48:57;;;;;;;6.53;5.93;;;10.50;99.90;;;11.06;90.38;104015.44;4994805;28;20443;-77
2021/12/17 11:51:29;;;;;;;6.70;6.00;;;10.80;99.90;;;11.21;89.61;104012.53;4994765;28;20051;-77
2021/12/17 11:54:07;;;;;;;8.32;6.88;;;10.90;99.90;;;10.78;89.13;103983.28;4994402;28;20038;-77
2021/12/17 11:56:42;;;;;;;6.97;6.28;;;10.80;99.90;;;11.19;89.21;104024.84;4994310;28;20046;-77
2021/12/17 11:59:37;;;;;;;7.85;5.35;;;10.90;99.90;;;11.27;88.31;104005.78;4994334;28;20038;-77
2021/12/17 12:02:11;;;;;;;5.90;5.30;;;11.00;99.90;;;11.44;87.74;104022.41;4977249;28;20049;-76
2021/12/17 12:04:58;;;;;;;9.35;6.35;;;11.20;99.90;;;10.35;87.66;103884.25;4994176;28;20061;-77
2021/12/17 12:07:37;;;;;;;7.53;5.88;;;11.00;99.90;;;10.95;87.39;104015.81;4994041;28;20050;-76
2021/12/17 12:10:22;;;;;;;6.18;5.55;;;11.00;99.90;;;10.96;88.51;104013.22;4994184;28;20443;-76
2021/12/17 12:13:01;;;;;;;7.63;5.38;;;10.80;99.90;;;11.19;88.06;104020.44;4993925;28;20050;-77
2021/12/17 12:15:44;;;;;;;5.47;4.90;;;10.90;99.90;;;10.59;88.51;104008.00;4993987;28;20050;-76
2021/12/17 12:18:49;;;;;;;7.47;5.88;;;10.60;99.90;;;10.75;88.03;104004.31;4993833;28;20467;-77
2021/12/17 12:21:18;;;;;;;5.82;5.25;;;10.70;99.90;;;10.61;88.02;104005.41;4994192;28;20062;-77
2021/12/17 12:23:53;;;;;;;5.80;5.03;;;10.60;99.90;;;10.40;88.58;104015.94;4994559;28;20076;-77
2021/12/17 12:26:37;;;;;;;5.63;4.55;;;10.40;99.90;;;10.52;89.26;104010.31;4994287;28;20774;-76
2021/12/17 12:29:14;;;;;;;6.65;5.75;;;10.30;99.90;;;10.47;88.56;103980.09;4993954;28;20058;-76
2021/12/17 12:31:59;;;;;;;6.95;6.22;;;10.40;99.90;;;10.84;88.19;104010.00;4994268;28;20038;-77
2021/12/17 12:34:41;;;;;;;7.18;6.25;;;10.60;99.90;;;11.04;87.57;104010.91;4993735;28;20500;-77
2021/12/17 12:37:28;;;;;;;5.97;5.30;;;10.80;99.90;;;10.63;86.69;104015.25;4993600;28;20452;-77
2021/12/17 12:40:16;;;;;;;5.90;5.30;;;10.70;99.90;;;10.39;88.09;104018.50;4993873;28;20077;-76
2021/12/17 12:42:56;;;;;;;6.35;5.75;;;10.40;99.90;;;9.91;87.78;103882.19;4992744;28;20058;-77
2021/12/17 12:45:32;;;;;;;7.18;6.47;;;10.50;99.90;;;10.80;87.60;104002.78;4992926;28;20051;-77
2021/12/17 12:48:01;;;;;;;7.50;6.70;;;10.70;99.90;;;11.10;86.89;104017.38;4993650;28;20046;-76
2021/12/17 12:50:34;;;;;;;8.55;7.10;;;10.90;99.90;;;11.06;86.74;103996.88;4993843;28;20050;-76
2021/12/17 12:53:09;;;;;;;7.50;6.75;;;11.00;99.90;;;11.03;86.46;103983.53;4993571;28;20193;-76
2021/12/17 12:55:43;;;;;;;9.75;8.52;;;11.10;99.90;;;11.32;86.09;104025.44;4993957;28;20050;-77